Time;durP1;ratioP1;P1;durP2;ratioP2;P2;SDS_P1;SDS_P2;PMS_P1;PMS_P2;Temp;Humidity;BMP_temperature;BMP_pressure;BME280_temperature;BME280_humidity;BME280_pressure;Samples;Min_cycle;Max_cycle;Signal;HPM_P1;HPM_P2
2023/07/28 00:01:30;;;;;;;3.87;2.20;;;;;;;16.57;100.00;99687.84;5006466;28;20204;-69
2023/07/28 00:03:57;;;;;;;3.57;2.60;;;;;;;16.57;100.00;99690.50;5002736;28;20679;-69
2023/07/28 00:06:24;;;;;;;3.03;2.23;;;;;;;16.49;100.00;99681.78;5001845;28;20211;-69
2023/07/28 00:08:50;;;;;;;3.80;2.47;;;;;;;16.52;100.00;99684.38;5001428;28;20303;-69
2023/07/28 00:11:16;;;;;;;4.60;2.60;;;;;;;16.52;100.00;99674.56;5006151;28;20224;-69
2023/07/28 00:13:43;;;;;;;4.70;2.90;;;;;;;16.53;100.00;99672.78;5005460;28;20236;-68
2023/07/28 00:16:10;;;;;;;4.77;3.27;;;;;;;16.49;100.00;99673.75;5004345;28;20227;-69
2023/07/28 00:18:36;;;;;;;4.17;3.50;;;;;;;16.46;100.00;99672.03;5005343;28;20615;-69
2023/07/28 00:21:05;;;;;;;4.60;3.53;;;;;;;16.51;100.00;99664.78;5006133;28;20292;-68
2023/07/28 00:23:31;;;;;;;4.63;3.47;;;;;;;16.52;100.00;99668.34;4999469;28;20578;-69
2023/07/28 00:25:57;;;;;;;4.03;3.50;;;;;;;16.46;100.00;99666.69;5004178;28;20586;-68
2023/07/28 00:28:24;;;;;;;3.87;3.07;;;;;;;16.49;100.00;99660.41;5005469;28;20228;-69
2023/07/28 00:30:50;;;;;;;4.13;3.30;;;;;;;16.44;100.00;99665.84;5002241;28;20275;-69
2023/07/28 00:33:17;;;;;;;3.83;2.70;;;;;;;16.44;100.00;99657.84;5002584;28;20751;-69
2023/07/28 00:35:43;;;;;;;3.80;2.43;;;;;;;16.42;100.00;99653.44;4996252;28;20207;-69
2023/07/28 00:38:10;;;;;;;4.10;2.40;;;;;;;16.40;100.00;99660.56;5003326;28;20733;-69
2023/07/28 00:40:38;;;;;;;3.07;2.60;;;;;;;16.41;100.00;99651.66;5002966;28;20196;-69
2023/07/28 00:43:05;;;;;;;3.23;2.40;;;;;;;16.41;100.00;99646.28;5001091;28;20203;-69
2023/07/28 00:45:33;;;;;;;2.50;2.27;;;;;;;16.39;100.00;99643.66;5004991;28;20714;-69
2023/07/28 00:48:00;;;;;;;3.60;1.83;;;;;;;16.41;100.00;99647.22;5004703;28;20224;-70
2023/07/28 00:50:27;;;;;;;2.50;2.30;;;;;;;16.39;100.00;99645.47;5002878;28;20604;-69
2023/07/28 00:52:55;;;;;;;4.27;2.30;;;;;;;16.38;100.00;99654.38;5003743;28;20461;-70
2023/07/28 00:55:22;;;;;;;3.47;1.90;;;;;;;16.42;100.00;99646.28;4997997;28;20200;-69
2023/07/28 00:57:50;;;;;;;3.03;2.00;;;;;;;16.42;100.00;99646.28;5005011;28;20223;-69
2023/07/28 01:00:16;;;;;;;3.07;2.63;;;;;;;16.39;100.00;99649.00;5000849;28;20248;-69
2023/07/28 01:02:43;;;;;;;3.23;2.23;;;;;;;16.39;100.00;99645.47;5003179;28;20229;-69
2023/07/28 01:05:10;;;;;;;3.23;2.00;;;;;;;16.40;100.00;99648.09;4996809;28;20440;-70
2023/07/28 01:07:49;;;;;;;2.73;2.10;;;;;;;16.36;100.00;99643.72;5002297;28;20721;-69
2023/07/28 01:10:34;;;;;;;4.40;2.20;;;;;;;16.36;100.00;99649.06;5004905;28;20234;-68
2023/07/28 01:13:00;;;;;;;2.53;2.00;;;;;;;16.37;100.00;99647.28;4999163;28;20203;-69
2023/07/28 01:15:27;;;;;;;2.60;1.97;;;;;;;16.36;100.00;99637.50;5002900;28;20213;-68
2023/07/28 01:17:53;;;;;;;3.63;2.30;;;;;;;16.37;100.00;99652.63;5004332;28;20249;-69
2023/07/28 01:20:23;;;;;;;2.67;2.20;;;;;;;16.37;100.00;99647.28;4996145;28;20204;-69
2023/07/28 01:23:13;;;;;;;4.53;2.33;;;;;;;16.38;100.00;99649.03;5001660;28;20204;-69
2023/07/28 01:26:03;;;;;;;2.80;2.47;;;;;;;16.41;100.00;99657.91;4999701;28;20287;-70
2023/07/28 01:28:30;;;;;;;3.77;2.63;;;;;;;16.43;100.00;99652.53;5003791;28;20730;-70
2023/07/28 01:30:57;;;;;;;3.83;2.63;;;;;;;16.43;100.00;99645.38;5005539;28;20219;-69
2023/07/28 01:33:23;;;;;;;4.33;3.07;;;;;;;16.47;100.00;99641.72;5002715;28;20723;-70
2023/07/28 01:35:50;;;;;;;4.70;3.33;;;;;;;16.45;100.00;99646.22;5001285;28;20304;-70
2023/07/28 01:38:16;;;;;;;5.43;3.30;;;;;;;16.42;100.00;99648.09;5000186;28;20231;-70
2023/07/28 01:40:43;;;;;;;4.87;3.53;;;;;;;16.43;100.00;99647.19;4998639;28;20215;-70
2023/07/28 01:43:09;;;;;;;8.07;3.83;;;;;;;16.44;100.00;99639.13;5002976;28;20630;-70
2023/07/28 01:45:36;;;;;;;9.80;3.60;;;;;;;16.42;100.00;99648.97;5001803;28;20299;-70
2023/07/28 01:48:02;;;;;;;6.40;3.57;;;;;;;16.41;100.00;99647.22;5001086;28;20232;-70
2023/07/28 01:50:29;;;;;;;8.43;3.40;;;;;;;16.42;100.00;99651.66;4999963;28;20243;-70
2023/07/28 01:52:56;;;;;;;5.63;3.40;;;;;;;16.45;100.00;99650.69;4995845;28;20224;-70
2023/07/28 01:55:22;;;;;;;5.17;2.80;;;;;;;16.42;100.00;99640.94;5000089;28;20208;-70
2023/07/28 01:57:59;;;;;;;4.70;2.90;;;;;;;16.43;100.00;99650.72;5003532;28;20229;-70
2023/07/28 02:00:26;;;;;;;7.30;3.00;;;;;;;16.43;100.00;99647.19;4998704;28;20263;-70
2023/07/28 02:02:54;;;;;;;6.83;3.00;;;;;;;16.39;100.00;99651.69;5001434;28;20300;-70
2023/07/28 02:05:20;;;;;;;6.47;3.20;;;;;;;16.43;100.00;99655.19;4998763;28;20672;-70
2023/07/28 02:07:47;;;;;;;5.97;2.80;;;;;;;16.43;100.00;99653.41;5000176;28;20228;-69
2023/07/28 02:10:13;;;;;;;5.27;2.50;;;;;;;16.39;100.00;99654.34;5004461;28;20613;-70
2023/07/28 02:12:40;;;;;;;6.80;3.07;;;;;;;16.43;100.00;99653.41;4998626;28;20204;-70
2023/07/28 02:15:07;;;;;;;7.90;2.80;;;;;;;16.44;100.00;99654.28;5004933;28;20196;-70
2023/07/28 02:17:34;;;;;;;7.20;3.10;;;;;;;16.45;100.00;99646.22;5006952;28;20876;-70
2023/07/28 02:20:03;;;;;;;4.97;2.70;;;;;;;16.42;100.00;99640.94;5001692;28;20197;-70
2023/07/28 02:22:29;;;;;;;5.63;2.33;;;;;;;16.40;100.00;99650.75;5006938;28;20250;-70
2023/07/28 02:24:56;;;;;;;4.03;2.30;;;;;;;16.39;100.00;99653.47;5000365;28;20581;-70
2023/07/28 02:27:22;;;;;;;3.60;2.40;;;;;;;16.38;100.00;99651.72;5006883;28;20220;-69
2023/07/28 02:29:49;;;;;;;5.40;2.87;;;;;;;16.38;100.00;99643.69;5001693;28;20217;-70
2023/07/28 02:32:15;;;;;;;5.03;2.80;;;;;;;16.37;100.00;99648.16;5003703;28;20223;-69
2023/07/28 02:34:41;;;;;;;5.00;2.40;;;;;;;16.38;100.00;99635.69;5005871;28;20200;-69
2023/07/28 02:37:08;;;;;;;3.53;2.43;;;;;;;16.37;100.00;99634.81;5003807;28;20228;-69
2023/07/28 02:39:34;;;;;;;3.87;2.40;;;;;;;16.34;100.00;99637.53;5003572;28;20648;-69
2023/07/28 02:42:00;;;;;;;3.93;2.27;;;;;;;16.35;100.00;99641.09;5004106;28;20200;-69
2023/07/28 02:44:27;;;;;;;6.23;2.70;;;;;;;16.37;100.00;99633.91;5004267;28;20203;-70
2023/07/28 02:46:53;;;;;;;3.80;2.27;;;;;;;16.38;100.00;99638.34;5002351;28;20224;-70
2023/07/28 02:49:20;;;;;;;3.13;2.30;;;;;;;16.34;100.00;99634.88;5005651;28;20208;-69
2023/07/28 02:51:46;;;;;;;3.97;2.40;;;;;;;16.33;100.00;99634.91;5003103;28;20307;-69
2023/07/28 02:54:13;;;;;;;5.80;2.07;;;;;;;16.31;100.00;99640.28;5001591;28;20207;-70
2023/07/28 02:56:40;;;;;;;5.30;2.77;;;;;;;16.28;100.00;99643.91;5001752;28;20200;-70
2023/07/28 02:59:06;;;;;;;5.33;2.27;;;;;;;16.27;100.00;99644.81;5003295;28;20335;-70
2023/07/28 03:01:33;;;;;;;3.13;2.20;;;;;;;16.27;100.00;99643.94;5004726;28;20287;-70
2023/07/28 03:04:03;;;;;;;2.80;2.20;;;;;;;16.27;100.00;99639.47;5000919;28;20698;-70
2023/07/28 03:06:29;;;;;;;3.43;2.00;;;;;;;16.25;100.00;99643.97;5005479;28;20662;-70
2023/07/28 03:08:58;;;;;;;3.37;2.00;;;;;;;16.22;100.00;99629.81;5002738;28;20204;-70
2023/07/28 03:11:25;;;;;;;3.93;2.40;;;;;;;16.20;100.00;99632.50;5005216;28;20216;-70
2023/07/28 03:13:51;;;;;;;2.93;2.00;;;;;;;16.20;100.00;99643.19;5002397;28;20660;-70
2023/07/28 03:16:18;;;;;;;3.57;2.10;;;;;;;16.19;100.00;99641.44;5003190;28;20200;-71
2023/07/28 03:18:44;;;;;;;3.57;2.10;;;;;;;16.19;100.00;99638.78;5003054;28;20246;-70
2023/07/28 03:21:11;;;;;;;3.63;2.00;;;;;;;16.20;100.00;99639.66;5000477;28;20291;-70
2023/07/28 03:23:37;;;;;;;4.97;2.30;;;;;;;16.17;100.00;99634.38;4998402;28;20200;-70
2023/07/28 03:26:03;;;;;;;2.93;2.20;;;;;;;16.20;100.00;99647.66;5001238;28;20208;-70
2023/07/28 03:28:30;;;;;;;3.60;2.70;;;;;;;16.27;100.00;99654.63;4997837;28;20592;-70
2023/07/28 03:30:56;;;;;;;3.27;2.43;;;;;;;16.35;100.00;99646.44;5007184;28;20231;-70
2023/07/28 03:33:22;;;;;;;3.10;2.10;;;;;;;16.40;100.00;99652.56;5001350;28;20200;-71
2023/07/28 03:35:49;;;;;;;4.03;2.33;;;;;;;16.37;100.00;99652.63;5000939;28;20220;-70
2023/07/28 03:38:15;;;;;;;3.57;2.40;;;;;;;16.35;100.00;99649.13;5002693;28;20742;-70
2023/07/28 03:40:43;;;;;;;4.40;2.27;;;;;;;16.36;100.00;99643.72;5002911;28;20687;-70
2023/07/28 03:43:10;;;;;;;3.13;2.63;;;;;;;16.40;100.00;99648.09;5001889;28;20204;-70
2023/07/28 03:45:36;;;;;;;3.00;2.33;;;;;;;16.47;100.00;99648.88;4998733;28;20618;-70
2023/07/28 03:48:03;;;;;;;3.47;2.37;;;;;;;16.45;100.00;99648.03;4999877;28;20307;-70
2023/07/28 03:50:29;;;;;;;4.17;2.63;;;;;;;16.38;100.00;99649.03;4997058;28;20278;-70
2023/07/28 03:52:56;;;;;;;3.57;2.20;;;;;;;16.39;100.00;99649.00;5000825;28;20329;-70
2023/07/28 03:55:22;;;;;;;3.77;2.37;;;;;;;16.46;100.00;99647.09;5007681;28;20203;-71
2023/07/28 03:57:48;;;;;;;3.20;2.30;;;;;;;16.46;100.00;99649.78;4995516;28;20303;-70
2023/07/28 04:00:15;;;;;;;3.30;2.27;;;;;;;16.44;100.00;99648.94;5000478;28;20208;-71
2023/07/28 04:02:41;;;;;;;2.43;2.20;;;;;;;16.43;100.00;99652.53;4996398;28;20288;-70
2023/07/28 04:05:08;;;;;;;4.17;2.50;;;;;;;16.49;100.00;99652.38;4999331;28;20287;-70
2023/07/28 04:07:34;;;;;;;3.50;2.40;;;;;;;16.52;100.00;99650.50;5003879;28;20307;-70
2023/07/28 04:10:01;;;;;;;3.03;2.30;;;;;;;16.54;100.00;99654.03;4997042;28;20287;-70
2023/07/28 04:12:27;;;;;;;3.57;2.40;;;;;;;16.56;100.00;99660.22;5001010;28;20299;-70
2023/07/28 04:14:53;;;;;;;2.80;2.10;;;;;;;16.56;100.00;99664.69;5001298;28;20676;-71
2023/07/28 04:17:22;;;;;;;2.77;2.00;;;;;;;16.57;100.00;99661.09;4999445;28;20220;-71
2023/07/28 04:19:49;;;;;;;6.67;2.37;;;;;;;16.65;100.00;99660.91;4994248;28;20294;-70
2023/07/28 04:22:21;;;;;;;3.23;2.33;;;;;;;16.66;100.00;99668.94;5000446;28;20212;-70
2023/07/28 04:24:50;;;;;;;4.23;2.30;;;;;;;16.68;100.00;99668.91;5001215;28;20221;-71
2023/07/28 04:27:16;;;;;;;2.60;2.30;;;;;;;16.69;100.00;99678.69;4996176;28;20223;-69
2023/07/28 04:29:43;;;;;;;2.53;1.90;;;;;;;16.77;100.00;99676.69;4998250;28;20210;-70
2023/07/28 04:32:09;;;;;;;2.70;2.00;;;;;;;16.79;100.00;99670.41;4995085;28;20366;-70
2023/07/28 04:34:36;;;;;;;4.17;2.03;;;;;;;16.91;100.00;99678.16;4998790;28;20201;-70
2023/07/28 04:37:02;;;;;;;3.07;1.97;;;;;;;16.93;100.00;99683.47;4999787;28;20223;-69
2023/07/28 04:39:28;;;;;;;2.10;1.90;;;;;;;16.98;100.00;99678.88;4996998;28;20200;-69
2023/07/28 04:41:55;;;;;;;3.67;2.17;;;;;;;17.04;100.00;99673.38;4998763;28;20204;-69
2023/07/28 04:44:21;;;;;;;3.20;2.03;;;;;;;17.05;100.00;99668.91;5001079;28;20210;-70
2023/07/28 04:46:48;;;;;;;2.30;1.70;;;;;;;17.10;100.00;99665.19;5001698;28;20255;-70
2023/07/28 04:49:14;;;;;;;2.63;2.03;;;;;;;17.16;100.00;99674.88;4999434;28;20215;-70
2023/07/28 04:51:41;;;;;;;2.53;1.70;;;;;;;17.25;100.00;99688.03;5003044;28;20224;-70
2023/07/28 04:54:07;;;;;;;2.87;1.87;;;;;;;17.27;100.00;99688.00;5001495;28;20503;-70
2023/07/28 04:56:33;;;;;;;2.13;1.80;;;;;;;17.30;100.00;99686.13;5000181;28;20227;-70
2023/07/28 04:59:00;;;;;;;2.73;1.73;;;;;;;17.34;100.00;99689.59;4996156;28;20205;-70
2023/07/28 05:01:27;;;;;;;1.87;1.67;;;;;;;17.41;100.00;99696.56;5005541;28;20200;-70
2023/07/28 05:03:53;;;;;;;3.43;1.80;;;;;;;17.47;100.00;99697.28;5002994;28;20687;-70
2023/07/28 05:06:20;;;;;;;3.17;1.87;;;;;;;17.47;100.00;99707.97;5001834;28;20209;-70
2023/07/28 05:08:46;;;;;;;2.50;1.63;;;;;;;17.57;100.00;99705.06;4994131;28;20310;-70
2023/07/28 05:11:12;;;;;;;3.67;1.70;;;;;;;17.58;100.00;99706.81;4998947;28;20205;-70
2023/07/28 05:13:39;;;;;;;2.80;1.80;;;;;;;17.65;100.00;99706.66;5001573;28;20212;-70
2023/07/28 05:16:05;;;;;;;2.00;1.67;;;;;;;17.64;100.00;99707.56;5000991;28;20681;-70
2023/07/28 05:18:32;;;;;;;2.13;1.70;;;;;;;17.69;100.00;99708.34;4998075;28;20238;-70
2023/07/28 05:20:58;;;;;;;2.30;1.60;;;;;;;17.78;100.00;99709.91;5003172;28;20579;-70
2023/07/28 05:23:25;;;;;;;2.27;1.60;;;;;;;17.79;100.00;99708.97;5000812;28;20635;-70
2023/07/28 05:25:51;;;;;;;2.40;1.60;;;;;;;17.81;100.00;99707.13;5002186;28;20204;-70
2023/07/28 05:28:17;;;;;;;3.60;1.85;;;;;;;17.83;100.00;99706.16;4999870;28;20228;-70
2023/07/28 05:30:44;;;;;;;2.58;1.60;;;;;;;17.80;100.00;99708.06;4999647;28;20204;-70
2023/07/28 05:33:10;;;;;;;1.80;1.47;;;;;;;17.85;100.00;99706.13;5000108;28;20212;-70
2023/07/28 05:35:37;;;;;;;4.30;1.73;;;;;;;17.93;100.00;99712.16;5003695;28;20211;-70
2023/07/28 05:38:03;;;;;;;1.50;1.40;;;;;;;18.05;100.00;99711.84;4996448;28;20311;-70
2023/07/28 05:40:30;;;;;;;2.05;1.65;;;;;;;18.22;100.00;99708.66;5005339;28;20196;-70
2023/07/28 05:42:56;;;;;;;2.60;1.70;;;;;;;18.36;100.00;99709.13;5000907;28;20420;-70
2023/07/28 05:45:22;;;;;;;1.98;1.60;;;;;;;18.57;100.00;99704.94;5000908;28;20580;-70
2023/07/28 05:47:49;;;;;;;2.47;1.77;;;;;;;18.73;100.00;99706.25;5000648;28;20307;-70
2023/07/28 05:50:15;;;;;;;3.83;1.80;;;;;;;18.95;100.00;99713.66;5006628;28;20204;-70
2023/07/28 05:52:42;;;;;;;2.88;1.83;;;;;;;19.24;100.00;99705.56;5001100;28;20599;-73
2023/07/28 05:55:08;;;;;;;3.75;2.10;;;;;;;19.59;100.00;99706.19;4987969;28;20211;-75
2023/07/28 05:57:35;;;;;;;3.70;2.13;;;;;;;19.98;100.00;99707.47;4996453;28;20622;-75
2023/07/28 06:00:01;;;;;;;2.95;1.70;;;;;;;20.43;100.00;99706.78;5003186;28;20223;-74
2023/07/28 06:02:28;;;;;;;4.40;1.90;;;;;;;20.65;100.00;99706.81;5004965;28;20204;-75
2023/07/28 06:04:54;;;;;;;4.03;1.90;;;;;;;20.69;100.00;99711.16;4996303;28;20205;-74
2023/07/28 06:07:20;;;;;;;4.43;1.77;;;;;;;20.72;100.00;99716.41;4995824;28;20953;-74
2023/07/28 06:09:47;;;;;;;3.53;1.60;;;;;;;20.67;100.00;99713.03;4997413;28;20204;-74
2023/07/28 06:12:16;;;;;;;2.63;1.60;;;;;;;20.79;100.00;99706.28;5002577;28;20216;-74
2023/07/28 06:14:42;;;;;;;3.35;1.45;;;;;;;20.82;100.00;99711.56;4998200;28;20212;-74
2023/07/28 06:17:09;;;;;;;3.00;1.40;;;;;;;20.94;100.00;99713.75;4999485;28;20242;-74
2023/07/28 06:19:35;;;;;;;3.38;1.55;;;;;;;21.22;100.00;99713.53;5005758;28;20196;-75
2023/07/28 06:22:02;;;;;;;2.13;1.40;;;;;;;21.39;100.00;99729.03;5002960;28;20196;-74
2023/07/28 06:24:30;;;;;;;1.88;1.27;;;;;;;21.61;100.00;99723.59;5002006;28;20208;-74
2023/07/28 06:26:56;;;;;;;1.92;1.10;;;;;;;21.83;100.00;99719.06;5005512;28;20240;-74
2023/07/28 06:29:22;;;;;;;3.20;1.20;;;;;;;22.23;100.00;99718.22;5006228;28;20226;-74
2023/07/28 06:31:49;;;;;;;1.50;0.88;;;;;;;23.42;100.00;99726.06;5004379;28;20231;-74
2023/07/28 06:34:15;;;;;;;1.08;0.80;;;;;;;23.49;100.00;99729.34;5001941;28;20207;-74
2023/07/28 06:36:42;;;;;;;2.38;0.90;;;;;;;23.65;100.00;99735.78;4999860;28;20688;-74
2023/07/28 06:39:08;;;;;;;7.53;1.30;;;;;;;23.41;100.00;99727.03;5002444;28;20206;-75
2023/07/28 06:41:35;;;;;;;3.95;1.85;;;;;;;23.05;100.00;99741.38;5005175;28;20196;-75
2023/07/28 06:44:02;;;;;;;3.50;1.30;;;;;;;22.83;100.00;99740.66;4995807;28;20292;-75
2023/07/28 06:46:29;;;;;;;2.08;0.95;;;;;;;22.54;100.00;99731.19;4999646;28;20693;-77
2023/07/28 06:48:56;;;;;;;5.13;1.20;;;;;;;22.10;100.00;99733.19;4999154;28;20205;-77
2023/07/28 06:51:22;;;;;;;1.33;0.82;;;;;;;21.86;100.00;99741.38;5001740;28;20219;-78
2023/07/28 06:53:49;;;;;;;2.28;1.00;;;;;;;21.79;100.00;99745.28;5002803;28;20204;-78
2023/07/28 06:56:16;;;;;;;2.75;1.40;;;;;;;21.62;100.00;99746.94;4998666;28;20292;-78
2023/07/28 06:58:42;;;;;;;1.13;0.90;;;;;;;21.47;100.00;99748.44;4999625;28;20228;-78
2023/07/28 07:01:21;;;;;;;1.33;1.10;;;;;;;21.32;100.00;99741.00;5000303;28;20770;-78
2023/07/28 07:03:48;;;;;;;1.40;0.98;;;;;;;21.15;100.00;99750.59;5005150;28;20297;-77
2023/07/28 07:06:14;;;;;;;1.05;0.73;;;;;;;20.97;100.00;99748.63;5003811;28;20290;-78
2023/07/28 07:08:41;;;;;;;1.58;1.13;;;;;;;20.86;100.00;99750.88;5004264;28;20216;-78
2023/07/28 07:11:07;;;;;;;1.77;0.88;;;;;;;20.98;100.00;99752.22;5002264;28;20211;-77
2023/07/28 07:13:33;;;;;;;2.75;1.00;;;;;;;21.05;100.00;99759.09;4997907;28;20224;-74
2023/07/28 07:16:00;;;;;;;4.15;1.25;;;;;;;21.04;100.00;99762.72;5002648;28;20200;-79
2023/07/28 07:18:27;;;;;;;1.77;1.00;;;;;;;21.07;100.00;99763.47;5007030;28;20487;-75
2023/07/28 07:20:53;;;;;;;1.50;0.70;;;;;;;21.06;100.00;99769.81;4998944;28;20200;-75
2023/07/28 07:23:19;;;;;;;2.20;0.98;;;;;;;21.03;100.00;99769.94;5001859;28;20208;-76
2023/07/28 07:25:49;;;;;;;0.90;0.80;;;;;;;21.16;100.00;99773.88;5002800;28;20676;-75
2023/07/28 07:28:15;;;;;;;1.20;0.60;;;;;;;21.44;100.00;99772.81;5003369;28;20225;-76
2023/07/28 07:30:42;;;;;;;1.00;0.75;;;;;;;21.32;100.00;99770.63;5000563;28;20209;-75
2023/07/28 07:33:09;;;;;;;6.72;1.08;;;;;;;21.39;100.00;99777.53;5002280;28;20216;-75
2023/07/28 07:35:37;;;;;;;0.88;0.63;;;;;;;21.50;100.00;99778.81;5004449;28;20287;-75
2023/07/28 07:38:08;;;;;;;0.80;0.80;;;;;;;21.72;100.00;99781.53;4999224;28;20255;-75
2023/07/28 07:40:36;;;;;;;1.88;0.80;;;;;;;22.01;100.00;99791.03;5003485;28;20576;-75
2023/07/28 07:43:03;;;;;;;3.33;0.80;;;;;;;22.28;100.00;99783.63;4996520;28;20872;-75
2023/07/28 07:45:30;;;;;;;0.98;0.88;;;;;;;22.83;100.00;99785.69;4996477;28;20199;-76
2023/07/28 07:47:56;;;;;;;0.95;0.70;;;;;;;23.81;100.00;99787.25;5003908;28;20224;-75
2023/07/28 07:50:23;;;;;;;1.20;0.70;;;;;;;24.13;100.00;99797.31;5005634;28;20609;-74
2023/07/28 07:52:49;;;;;;;1.40;0.70;;;;;;;24.54;100.00;99786.16;5003735;28;20220;-77
2023/07/28 07:55:16;;;;;;;0.75;0.65;;;;;;;25.58;100.00;99786.66;5003986;28;20215;-71
2023/07/28 07:57:42;;;;;;;3.30;0.77;;;;;;;25.20;100.00;99797.84;4995808;28;20324;-73
2023/07/28 08:00:10;;;;;;;1.02;0.52;;;;;;;24.43;100.00;99794.88;5003832;28;20227;-72
2023/07/28 08:02:37;;;;;;;1.63;0.65;;;;;;;23.60;100.00;99808.09;4996465;28;20235;-76
2023/07/28 08:05:04;;;;;;;5.75;1.73;;;;;;;23.64;100.00;99813.31;5001634;28;20235;-74
2023/07/28 08:07:30;;;;;;;0.63;0.63;;;;;;;23.57;100.00;99806.44;4998935;28;20283;-74
2023/07/28 08:09:57;;;;;;;1.50;0.70;;;;;;;23.81;100.00;99798.94;4998901;28;20231;-74
2023/07/28 08:12:24;;;;;;;0.80;0.70;;;;;;;24.49;100.00;99791.81;5001511;28;20220;-74
2023/07/28 08:14:50;;;;;;;1.13;0.70;;;;;;;24.85;100.00;99797.09;5001772;28;20204;-74
2023/07/28 08:17:17;;;;;;;1.85;0.70;;;;;;;25.14;100.00;99790.06;4997079;28;20235;-74
2023/07/28 08:19:44;;;;;;;1.48;0.73;;;;;;;25.44;100.00;99798.31;4998233;28;20557;-73
2023/07/28 08:22:12;;;;;;;1.60;0.70;;;;;;;26.03;100.00;99801.25;4993872;28;20691;-75
2023/07/28 08:24:39;;;;;;;4.80;1.33;;;;;;;26.41;100.00;99790.81;5003936;28;20622;-77
2023/07/28 08:27:06;;;;;;;1.38;0.90;;;;;;;25.89;100.00;99791.22;4998646;28;20289;-76
2023/07/28 08:29:33;;;;;;;0.93;0.70;;;;;;;25.56;100.00;99804.84;5001395;28;20196;-74
2023/07/28 08:31:59;;;;;;;0.70;0.50;;;;;;;25.47;100.00;99797.25;4995066;28;20227;-74
2023/07/28 08:34:25;;;;;;;1.60;0.80;;;;;;;25.12;100.00;99804.66;4999251;28;21533;-76
2023/07/28 08:36:52;;;;;;;1.30;0.60;;;;;;;24.85;100.00;99807.06;5002863;28;20327;-75
2023/07/28 08:39:18;;;;;;;1.05;0.68;;;;;;;24.17;100.00;99809.72;4999529;28;20588;-75
2023/07/28 08:41:45;;;;;;;0.75;0.70;;;;;;;24.72;100.00;99809.53;5002197;28;20215;-74
2023/07/28 08:44:11;;;;;;;2.80;0.93;;;;;;;24.97;100.00;99806.38;5000281;28;20326;-76
2023/07/28 08:46:38;;;;;;;3.25;1.00;;;;;;;24.73;100.00;99805.84;4999134;28;20472;-75
2023/07/28 08:49:04;;;;;;;2.15;0.60;;;;;;;24.53;100.00;99804.25;4999531;28;20287;-75
2023/07/28 08:51:31;;;;;;;0.70;0.60;;;;;;;24.56;100.00;99803.19;5000925;28;20209;-74
2023/07/28 08:53:59;;;;;;;5.00;0.70;;;;;;;25.40;100.00;99802.16;4996732;28;20594;-75
2023/07/28 08:56:26;;;;;;;1.83;0.70;;;;;;;25.46;100.00;99809.06;5001496;28;20282;-76
2023/07/28 08:59:01;;;;;;;3.70;0.57;;;;;;;25.95;99.04;99809.84;5001717;28;20231;-77
2023/07/28 09:01:28;;;;;;;0.52;0.50;;;;;;;26.07;96.68;99811.84;5000226;28;20693;-74
2023/07/28 09:03:54;;;;;;;1.95;0.68;;;;;;;26.24;96.58;99822.56;5003699;28;20219;-74
2023/07/28 09:06:29;;;;;;;0.80;0.77;;;;;;;26.09;96.02;99818.06;4991302;28;20272;-74
2023/07/28 09:08:57;;;;;;;0.70;0.70;;;;;;;25.82;96.75;99820.53;4999477;28;20227;-74
2023/07/28 09:11:26;;;;;;;2.35;0.73;;;;;;;25.39;100.00;99827.53;5003914;28;20922;-74
2023/07/28 09:13:54;;;;;;;1.05;0.63;;;;;;;25.77;97.95;99832.63;5003905;28;20425;-74
2023/07/28 09:16:24;;;;;;;1.17;1.08;;;;;;;25.87;94.75;99818.44;4997607;28;20812;-74
2023/07/28 09:18:51;;;;;;;1.15;0.80;;;;;;;26.16;96.26;99815.84;4999895;28;20252;-74
2023/07/28 09:21:20;;;;;;;1.85;0.60;;;;;;;26.62;88.55;99816.66;4998901;28;20243;-75
2023/07/28 09:23:48;;;;;;;0.60;0.60;;;;;;;26.20;86.56;99818.28;4999879;28;20648;-75
2023/07/28 09:26:15;;;;;;;1.38;0.90;;;;;;;26.06;92.77;99817.38;5004315;28;20204;-75
2023/07/28 09:28:42;;;;;;;3.17;1.20;;;;;;;25.84;96.65;99829.47;5005688;28;20730;-74
2023/07/28 09:31:10;;;;;;;2.35;0.82;;;;;;;25.58;98.90;99825.50;5002584;28;20949;-77
2023/07/28 09:33:38;;;;;;;0.70;0.60;;;;;;;25.52;100.00;99828.56;5005435;28;20216;-76
2023/07/28 09:36:09;;;;;;;0.65;0.65;;;;;;;25.88;94.14;99813.88;5007551;28;20206;-75
2023/07/28 09:38:38;;;;;;;1.08;0.82;;;;;;;26.41;88.38;99810.69;5003273;28;20224;-74
2023/07/28 09:41:09;;;;;;;0.60;0.60;;;;;;;27.24;84.80;99824.59;5001802;28;20207;-75
2023/07/28 09:43:36;;;;;;;2.15;0.70;;;;;;;27.58;73.39;99817.78;5005666;28;20204;-74
2023/07/28 09:46:06;;;;;;;1.02;0.80;;;;;;;27.89;68.25;99813.94;4999535;28;20574;-74
2023/07/28 09:48:34;;;;;;;0.70;0.70;;;;;;;27.75;67.27;99821.19;5005650;28;20308;-73
2023/07/28 09:51:09;;;;;;;2.70;0.75;;;;;;;27.90;67.94;99819.28;5003383;28;20590;-73
2023/07/28 09:53:43;;;;;;;1.00;0.70;;;;;;;28.05;67.48;99818.28;5004942;28;20215;-75
2023/07/28 09:56:13;;;;;;;0.80;0.80;;;;;;;28.47;66.28;99810.88;5000062;28;20227;-75
2023/07/28 09:58:44;;;;;;;0.70;0.70;;;;;;;28.33;63.81;99820.00;5004996;28;20264;-75
2023/07/28 10:01:11;;;;;;;1.60;0.70;;;;;;;27.93;65.09;99824.53;5000909;28;20314;-73
2023/07/28 10:03:37;;;;;;;0.80;0.70;;;;;;;27.64;66.74;99821.03;5002597;28;20212;-76
2023/07/28 10:06:04;;;;;;;1.73;1.00;;;;;;;27.25;69.14;99821.75;5000571;28;20211;-75
2023/07/28 10:08:32;;;;;;;0.80;0.80;;;;;;;27.96;66.78;99827.03;5004467;28;20230;-75
2023/07/28 10:10:59;;;;;;;0.98;0.82;;;;;;;28.12;64.92;99823.28;4998666;28;20204;-75
2023/07/28 10:13:27;;;;;;;1.17;0.90;;;;;;;28.64;63.76;99818.75;5004459;28;20754;-72
2023/07/28 10:15:53;;;;;;;1.35;0.80;;;;;;;28.29;62.91;99823.91;5001435;28;20204;-74
2023/07/28 10:18:22;;;;;;;0.70;0.70;;;;;;;28.76;63.62;99816.13;5005685;28;20220;-74
2023/07/28 10:20:49;;;;;;;1.20;0.93;;;;;;;29.00;63.22;99815.28;5005938;28;20687;-71
2023/07/28 10:23:23;;;;;;;1.95;0.60;;;;;;;28.62;61.77;99807.06;5000163;28;20641;-71
2023/07/28 10:25:58;;;;;;;0.85;0.75;;;;;;;27.92;64.37;99819.19;4999148;28;20251;-72
2023/07/28 10:28:35;;;;;;;2.35;1.30;;;;;;;28.57;63.43;99825.59;5004060;28;20722;-73
2023/07/28 10:31:02;;;;;;;1.23;1.13;;;;;;;28.51;63.37;99819.72;5001728;28;20279;-73
2023/07/28 10:33:41;;;;;;;1.58;1.00;;;;;;;28.21;63.55;99823.53;5002978;28;20650;-72
2023/07/28 10:36:14;;;;;;;1.73;1.25;;;;;;;28.05;66.37;99820.13;4999846;28;20205;-74
2023/07/28 10:38:41;;;;;;;2.13;1.20;;;;;;;27.80;65.25;99820.00;4997845;28;20220;-74
2023/07/28 10:41:16;;;;;;;1.40;1.20;;;;;;;27.88;65.77;99828.53;4998400;28;20688;-75
2023/07/28 10:43:44;;;;;;;3.05;0.85;;;;;;;27.70;65.87;99825.22;5012555;28;20220;-75
2023/07/28 10:46:14;;;;;;;3.33;0.60;;;;;;;27.89;65.04;99830.28;5011895;28;20783;-74
2023/07/28 10:48:46;;;;;;;0.80;0.80;;;;;;;27.53;66.09;99822.66;4999674;28;20646;-72
2023/07/28 10:51:20;;;;;;;3.42;0.60;;;;;;;27.18;67.85;99833.97;5006174;28;20288;-74
2023/07/28 10:53:50;;;;;;;0.60;0.60;;;;;;;27.38;66.77;99830.88;5001285;28;20645;-74
2023/07/28 10:56:17;;;;;;;6.22;0.98;;;;;;;27.60;65.61;99832.16;5006651;28;20645;-72
2023/07/28 10:58:43;;;;;;;3.75;1.00;;;;;;;28.34;65.69;99837.22;5004435;28;20318;-73
2023/07/28 11:01:10;;;;;;;1.23;0.90;;;;;;;28.58;63.32;99827.34;5002742;28;20218;-73
2023/07/28 11:03:37;;;;;;;1.10;1.00;;;;;;;28.16;64.55;99842.03;5002915;28;20192;-72
2023/07/28 11:06:04;;;;;;;1.38;1.00;;;;;;;28.53;64.16;99834.97;5001323;28;20262;-73
2023/07/28 11:08:32;;;;;;;1.02;0.90;;;;;;;28.93;62.45;99837.66;5002498;28;20228;-72
2023/07/28 11:10:59;;;;;;;1.67;1.10;;;;;;;28.91;61.37;99826.84;5005128;28;20204;-74
2023/07/28 11:13:28;;;;;;;1.55;1.00;;;;;;;29.12;61.52;99831.72;5003587;28;20212;-74
2023/07/28 11:16:07;;;;;;;1.02;0.98;;;;;;;29.69;60.75;99826.63;4999699;28;20200;-74
2023/07/28 11:18:34;;;;;;;1.52;1.20;;;;;;;29.89;59.28;99831.47;5011616;28;20290;-74
2023/07/28 11:21:00;;;;;;;1.33;1.23;;;;;;;29.37;58.90;99837.16;5002555;28;20211;-73
2023/07/28 11:23:27;;;;;;;1.33;1.00;;;;;;;29.31;60.61;99835.75;4998314;28;20211;-74
2023/07/28 11:25:53;;;;;;;1.42;1.17;;;;;;;29.30;60.82;99842.19;5002715;28;20211;-74
2023/07/28 11:28:21;;;;;;;1.58;1.20;;;;;;;29.55;60.52;99843.16;5003014;28;20306;-74